createdAt,value
2023-02-09T00:00:02.660Z,62.18
2023-02-09T00:02:30.112Z,62.09
2023-02-09T00:04:58.705Z,61.79
2023-02-09T00:07:26.071Z,61.72
2023-02-09T00:09:53.547Z,61.31
2023-02-09T00:12:38.487Z,61.58
2023-02-09T00:15:07.223Z,61.60
2023-02-09T00:17:35.760Z,61.43
2023-02-09T00:20:04.921Z,61.46
2023-02-09T00:22:32.901Z,61.68
2023-02-09T00:25:00.469Z,62.14
2023-02-09T00:27:27.810Z,62.36
2023-02-09T00:29:55.120Z,62.40
2023-02-09T00:32:22.382Z,62.37
2023-02-09T00:34:49.875Z,62.40
2023-02-09T00:37:18.790Z,62.26
2023-02-09T00:39:46.165Z,61.97
2023-02-09T00:42:13.437Z,61.65
2023-02-09T00:44:41.873Z,61.26
2023-02-09T00:47:09.277Z,61.78
2023-02-09T00:49:36.833Z,60.88
2023-02-09T00:52:04.185Z,61.03
2023-02-09T00:54:32.839Z,60.77
2023-02-09T00:57:05.218Z,60.87
2023-02-09T00:59:34.069Z,60.55
2023-02-09T01:02:01.569Z,60.59
2023-02-09T01:04:29.001Z,60.29
2023-02-09T01:06:56.311Z,59.77
2023-02-09T01:09:23.598Z,59.49
2023-02-09T01:11:52.194Z,59.49
2023-02-09T01:14:19.511Z,59.51
2023-02-09T01:16:46.887Z,59.45
2023-02-09T01:19:14.332Z,59.15
2023-02-09T01:21:42.403Z,58.98
2023-02-09T01:24:13.258Z,58.63
2023-02-09T01:26:40.922Z,59.03
2023-02-09T01:29:12.607Z,59.15
2023-02-09T01:31:39.996Z,59.09
2023-02-09T01:34:07.319Z,58.77
2023-02-09T01:36:34.982Z,58.94
2023-02-09T01:39:02.976Z,58.83
2023-02-09T01:41:30.291Z,59.08
2023-02-09T01:43:59.383Z,59.07
2023-02-09T01:46:29.437Z,59.02
2023-02-09T01:49:00.072Z,59.53
2023-02-09T01:51:28.770Z,59.58
2023-02-09T01:53:56.191Z,59.86
2023-02-09T01:56:27.180Z,59.92
2023-02-09T01:58:54.978Z,59.54
2023-02-09T02:01:22.843Z,60.04
2023-02-09T02:03:52.586Z,60.25
2023-02-09T02:06:20.402Z,60.46
2023-02-09T02:08:49.771Z,60.06
2023-02-09T02:11:17.363Z,60.37
2023-02-09T02:13:44.904Z,60.43
2023-02-09T02:16:19.231Z,60.51
2023-02-09T02:18:58.038Z,60.99
2023-02-09T02:21:38.416Z,61.00
2023-02-09T02:24:12.684Z,61.01
2023-02-09T02:26:49.649Z,60.69
2023-02-09T02:29:25.194Z,60.77
2023-02-09T02:32:09.801Z,60.72
2023-02-09T02:34:42.561Z,60.82
2023-02-09T02:37:14.035Z,60.88
2023-02-09T02:39:44.837Z,60.63
2023-02-09T02:42:31.905Z,61.28
2023-02-09T02:45:04.313Z,60.91
2023-02-09T02:47:35.137Z,60.99
2023-02-09T02:50:06.830Z,61.37
2023-02-09T02:52:34.197Z,61.19
2023-02-09T02:55:03.897Z,60.95
2023-02-09T02:57:33.453Z,60.91
2023-02-09T03:00:03.488Z,61.16
2023-02-09T03:02:33.535Z,61.02
2023-02-09T03:05:03.476Z,61.11
2023-02-09T03:07:30.781Z,61.20
2023-02-09T03:09:58.325Z,61.63
2023-02-09T03:12:33.292Z,61.38
2023-02-09T03:15:09.525Z,61.77
2023-02-09T03:17:42.449Z,62.05
2023-02-09T03:20:15.326Z,62.41
2023-02-09T03:22:43.668Z,61.59
2023-02-09T03:25:13.819Z,62.13
2023-02-09T03:27:42.742Z,62.64
2023-02-09T03:30:12.523Z,62.43
2023-02-09T03:32:40.248Z,62.64
2023-02-09T03:35:09.130Z,62.88
2023-02-09T03:37:37.715Z,62.69
2023-02-09T03:40:05.361Z,62.78
2023-02-09T03:42:32.635Z,62.53
2023-02-09T03:44:59.908Z,62.93
2023-02-09T03:47:27.243Z,63.32
2023-02-09T03:49:54.530Z,63.39
2023-02-09T03:52:21.800Z,63.69
2023-02-09T03:54:50.419Z,63.98
2023-02-09T03:57:17.850Z,63.60
2023-02-09T03:59:45.211Z,63.97
2023-02-09T04:02:12.525Z,63.74
2023-02-09T04:04:40.021Z,63.64
2023-02-09T04:07:07.307Z,63.63
2023-02-09T04:09:35.000Z,63.50
2023-02-09T04:12:03.605Z,63.70
2023-02-09T04:14:30.868Z,63.68
2023-02-09T04:16:58.137Z,64.17
2023-02-09T04:19:25.498Z,64.53
2023-02-09T04:21:52.758Z,64.55
2023-02-09T04:24:21.317Z,65.47
2023-02-09T04:26:48.608Z,65.38
2023-02-09T04:29:17.200Z,65.52
2023-02-09T04:31:44.528Z,65.72
2023-02-09T04:34:12.028Z,65.63
2023-02-09T04:36:39.272Z,65.69
2023-02-09T04:39:06.538Z,66.07
2023-02-09T04:41:33.820Z,66.14
2023-02-09T04:44:01.098Z,66.50
2023-02-09T04:46:29.865Z,66.19
2023-02-09T04:48:57.109Z,66.69
2023-02-09T04:51:24.370Z,66.67
2023-02-09T04:53:51.625Z,67.06
2023-02-09T04:56:18.900Z,66.96
2023-02-09T04:59:04.076Z,67.58
2023-02-09T05:01:33.591Z,68.36
2023-02-09T05:04:00.898Z,68.63
2023-02-09T05:06:28.260Z,68.84
2023-02-09T05:08:55.538Z,68.80
2023-02-09T05:11:25.285Z,69.60
2023-02-09T05:13:52.862Z,69.99
2023-02-09T05:16:20.190Z,70.58
2023-02-09T05:18:50.306Z,72.10
2023-02-09T05:21:17.569Z,71.98
2023-02-09T05:23:44.852Z,72.28
2023-02-09T05:26:12.132Z,72.16
2023-02-09T05:28:39.519Z,72.72
2023-02-09T05:31:06.871Z,73.70
2023-02-09T05:33:34.263Z,73.99
2023-02-09T05:36:08.208Z,74.27
2023-02-09T05:38:35.686Z,74.16
2023-02-09T05:41:04.874Z,74.74
2023-02-09T05:43:32.182Z,73.87
2023-02-09T05:45:59.472Z,74.25
2023-02-09T05:48:26.824Z,75.39
2023-02-09T05:50:54.106Z,75.18
2023-02-09T05:53:25.277Z,74.71
2023-02-09T05:55:52.526Z,75.61
2023-02-09T05:58:19.782Z,75.78
2023-02-09T06:00:47.676Z,75.91
2023-02-09T06:03:15.176Z,75.83
2023-02-09T06:05:45.132Z,75.66
2023-02-09T06:08:12.415Z,75.93
2023-02-09T06:10:41.008Z,76.23
2023-02-09T06:13:08.338Z,76.54
2023-02-09T06:15:35.645Z,76.74
2023-02-09T06:18:03.249Z,76.50
2023-02-09T06:20:30.508Z,76.80
2023-02-09T06:22:57.794Z,77.67
2023-02-09T06:25:25.047Z,76.89
2023-02-09T06:27:53.691Z,76.53
2023-02-09T06:30:21.012Z,77.09
2023-02-09T06:32:48.271Z,77.43
2023-02-09T06:35:15.589Z,76.56
2023-02-09T06:37:42.870Z,77.21
2023-02-09T06:40:10.503Z,77.32
2023-02-09T06:42:46.784Z,77.38
2023-02-09T06:45:16.396Z,77.66
2023-02-09T06:47:44.523Z,77.28
2023-02-09T06:50:13.170Z,78.29
2023-02-09T06:52:40.566Z,78.20
2023-02-09T06:55:08.291Z,77.62
2023-02-09T06:57:36.142Z,77.77
2023-02-09T07:00:04.930Z,77.49
2023-02-09T07:02:33.823Z,77.81
2023-02-09T07:05:01.313Z,77.15
2023-02-09T07:07:28.616Z,77.28
2023-02-09T07:09:56.000Z,75.68
2023-02-09T07:12:23.505Z,75.77
2023-02-09T07:14:50.786Z,76.26
2023-02-09T07:17:18.059Z,75.97
2023-02-09T07:19:47.021Z,76.10
2023-02-09T07:22:14.452Z,75.41
2023-02-09T07:24:41.887Z,75.92
2023-02-09T07:27:09.252Z,76.11
2023-02-09T07:29:36.613Z,75.96
2023-02-09T07:32:04.005Z,75.29
2023-02-09T07:34:31.332Z,74.19
2023-02-09T07:36:59.999Z,74.07
2023-02-09T07:39:27.379Z,73.39
2023-02-09T07:41:54.920Z,72.99
2023-02-09T07:44:22.258Z,72.94
2023-02-09T07:46:49.767Z,72.34
2023-02-09T07:49:17.259Z,72.79
2023-02-09T07:51:44.646Z,72.62
2023-02-09T07:54:14.878Z,72.06
2023-02-09T07:56:42.891Z,72.61
2023-02-09T07:59:11.118Z,71.02
2023-02-09T08:01:38.493Z,71.39
2023-02-09T08:04:05.963Z,70.32
2023-02-09T08:06:42.175Z,70.15
2023-02-09T08:09:11.478Z,70.17
2023-02-09T08:11:41.468Z,70.46
2023-02-09T08:14:11.913Z,70.54
2023-02-09T08:16:39.624Z,69.59
2023-02-09T08:19:09.750Z,69.94
2023-02-09T08:21:38.569Z,69.57
2023-02-09T08:24:06.834Z,68.75
2023-02-09T08:26:34.238Z,68.54
2023-02-09T08:29:03.228Z,68.92
2023-02-09T08:31:30.775Z,68.55
2023-02-09T08:33:58.179Z,67.65
2023-02-09T08:36:25.486Z,67.37
2023-02-09T08:38:52.891Z,66.72
2023-02-09T08:41:20.289Z,66.27
2023-02-09T08:43:51.598Z,64.93
2023-02-09T08:46:20.521Z,65.12
2023-02-09T08:48:48.161Z,65.26
2023-02-09T08:51:16.236Z,65.40
2023-02-09T08:53:46.118Z,64.90
2023-02-09T08:56:13.463Z,64.58
2023-02-09T08:58:40.793Z,63.72
2023-02-09T09:01:08.251Z,63.33
2023-02-09T09:03:37.333Z,63.22
2023-02-09T09:06:05.552Z,63.24
2023-02-09T09:08:33.696Z,62.71
2023-02-09T09:11:01.090Z,62.19
2023-02-09T09:13:28.748Z,61.36
2023-02-09T09:15:56.490Z,60.46
2023-02-09T09:18:24.236Z,60.61
2023-02-09T09:20:52.971Z,60.75
2023-02-09T09:23:21.111Z,60.17
2023-02-09T09:25:48.570Z,60.41
2023-02-09T09:28:16.142Z,59.64
2023-02-09T09:30:43.555Z,59.90
2023-02-09T09:33:10.891Z,58.61
2023-02-09T09:35:38.430Z,58.21
2023-02-09T09:38:07.037Z,59.46
2023-02-09T09:40:35.598Z,57.22
2023-02-09T09:43:03.898Z,56.20
2023-02-09T09:45:33.481Z,55.88
2023-02-09T09:48:00.998Z,57.02
2023-02-09T09:50:29.526Z,55.79
2023-02-09T09:52:59.038Z,55.45
2023-02-09T09:55:29.516Z,57.19
2023-02-09T09:57:59.458Z,54.34
2023-02-09T10:00:28.360Z,54.66
2023-02-09T10:02:55.718Z,52.71
2023-02-09T10:05:24.392Z,52.45
2023-02-09T10:07:55.738Z,51.91
2023-02-09T10:10:29.567Z,52.40
2023-02-09T10:12:59.102Z,51.92
2023-02-09T10:15:28.606Z,50.31
2023-02-09T10:17:55.962Z,50.15
2023-02-09T10:20:38.165Z,50.02
2023-02-09T10:23:05.483Z,50.17
2023-02-09T10:25:38.696Z,49.37
2023-02-09T10:28:15.328Z,48.61
2023-02-09T10:30:46.841Z,48.69
2023-02-09T10:33:15.677Z,48.47
2023-02-09T10:35:45.544Z,47.44
2023-02-09T10:38:16.822Z,47.39
2023-02-09T10:40:44.150Z,46.40
2023-02-09T10:43:20.740Z,47.06
2023-02-09T10:45:49.272Z,46.47
2023-02-09T10:48:18.936Z,46.84
2023-02-09T10:50:50.134Z,46.55
2023-02-09T10:53:20.206Z,45.92
2023-02-09T10:55:47.750Z,46.33
2023-02-09T10:58:21.480Z,45.79
2023-02-09T11:00:50.603Z,45.28
2023-02-09T11:03:18.925Z,44.67
2023-02-09T11:05:47.901Z,44.21
2023-02-09T11:08:18.368Z,43.64
2023-02-09T11:10:50.366Z,43.35
2023-02-09T11:13:22.276Z,43.04
2023-02-09T11:16:00.708Z,43.71
2023-02-09T11:18:30.013Z,43.60
2023-02-09T11:21:03.226Z,43.22
2023-02-09T11:23:43.249Z,43.28
2023-02-09T11:26:16.109Z,43.31
2023-02-09T11:28:49.088Z,43.21
2023-02-09T11:31:25.187Z,42.94
2023-02-09T11:33:57.488Z,43.47
2023-02-09T11:36:34.117Z,43.08
2023-02-09T11:39:02.576Z,43.51
2023-02-09T11:41:48.095Z,43.22
2023-02-09T11:44:21.506Z,42.92
2023-02-09T11:46:49.837Z,43.52
2023-02-09T11:49:20.363Z,43.18
2023-02-09T11:51:49.047Z,43.28
2023-02-09T11:54:18.441Z,43.23
2023-02-09T11:56:49.827Z,42.82
2023-02-09T11:59:22.393Z,43.48
2023-02-09T12:01:53.348Z,43.35
2023-02-09T12:04:24.617Z,42.78
2023-02-09T12:06:54.537Z,43.18
2023-02-09T12:09:31.481Z,42.40
2023-02-09T12:12:03.236Z,42.83
2023-02-09T12:14:39.531Z,42.96
2023-02-09T12:17:11.677Z,42.92
2023-02-09T12:19:42.203Z,43.93
2023-02-09T12:22:24.431Z,43.89
2023-02-09T12:25:11.807Z,44.86
2023-02-09T12:27:41.484Z,45.73
2023-02-09T12:30:23.673Z,46.12
2023-02-09T12:32:52.322Z,45.95
2023-02-09T12:35:27.235Z,45.85
2023-02-09T12:38:09.129Z,46.28
2023-02-09T12:40:37.179Z,45.90
2023-02-09T12:43:10.991Z,45.84
2023-02-09T12:45:39.393Z,46.63
2023-02-09T12:48:17.587Z,47.27
2023-02-09T12:50:53.500Z,47.37
2023-02-09T12:53:37.988Z,47.78
2023-02-09T12:56:24.041Z,47.22
2023-02-09T12:58:56.175Z,47.04
2023-02-09T13:01:43.473Z,47.48
2023-02-09T13:04:13.570Z,47.45
2023-02-09T13:06:44.345Z,47.60
2023-02-09T13:09:19.976Z,47.74
2023-02-09T13:11:49.738Z,48.70
2023-02-09T13:14:18.273Z,48.24
2023-02-09T13:16:59.912Z,48.17
2023-02-09T13:19:47.686Z,47.88
2023-02-09T13:22:26.212Z,48.17
2023-02-09T13:25:00.180Z,47.41
2023-02-09T13:27:28.350Z,47.69
2023-02-09T13:29:56.975Z,47.06
2023-02-09T13:32:35.074Z,47.01
2023-02-09T13:35:07.641Z,47.16
2023-02-09T13:37:43.794Z,45.94
2023-02-09T13:40:15.453Z,46.16
2023-02-09T13:42:52.247Z,46.09
2023-02-09T13:45:20.301Z,46.12
2023-02-09T13:47:48.220Z,46.19
2023-02-09T13:50:18.963Z,46.29
2023-02-09T13:52:46.254Z,46.32
2023-02-09T13:55:16.252Z,45.83
2023-02-09T13:57:44.890Z,46.09
2023-02-09T14:00:19.674Z,45.22
2023-02-09T14:02:48.916Z,45.87
2023-02-09T14:05:24.186Z,45.95
2023-02-09T14:07:51.867Z,46.25
2023-02-09T14:10:19.741Z,46.17
2023-02-09T14:12:55.411Z,46.12
2023-02-09T14:15:43.061Z,45.85
2023-02-09T14:18:37.339Z,46.05
2023-02-09T14:21:14.850Z,46.02
2023-02-09T14:23:43.098Z,46.42
2023-02-09T14:26:19.636Z,46.46
2023-02-09T14:28:50.009Z,46.81
2023-02-09T14:31:19.141Z,46.69
2023-02-09T14:33:48.292Z,47.02
2023-02-09T14:36:23.325Z,47.18
2023-02-09T14:38:51.702Z,47.42
2023-02-09T14:41:28.898Z,47.06
2023-02-09T14:44:00.454Z,47.64
2023-02-09T14:46:27.857Z,47.42
2023-02-09T14:48:58.397Z,47.67
2023-02-09T14:51:28.477Z,47.93
2023-02-09T14:53:55.885Z,47.90
2023-02-09T14:56:24.664Z,48.01
2023-02-09T14:58:51.976Z,48.24
2023-02-09T15:01:19.351Z,48.58
2023-02-09T15:03:46.731Z,48.67
2023-02-09T15:06:14.882Z,50.84
2023-02-09T15:08:44.076Z,49.23
2023-02-09T15:11:31.683Z,49.80
2023-02-09T15:14:01.487Z,50.50
2023-02-09T15:16:29.280Z,50.72
2023-02-09T15:18:56.636Z,50.69
2023-02-09T15:21:24.048Z,51.06
2023-02-09T15:23:52.708Z,51.27
2023-02-09T15:26:20.409Z,51.71
2023-02-09T15:28:48.295Z,51.33
2023-02-09T15:31:16.375Z,51.63
2023-02-09T15:33:44.146Z,51.75
2023-02-09T15:36:13.536Z,51.54
2023-02-09T15:38:40.847Z,51.97
2023-02-09T15:41:28.817Z,52.15
2023-02-09T15:44:13.677Z,52.26
2023-02-09T15:46:58.521Z,52.73
2023-02-09T15:49:25.860Z,53.21
2023-02-09T15:51:53.359Z,53.54
2023-02-09T15:54:22.479Z,53.80
2023-02-09T15:56:51.066Z,55.72
2023-02-09T15:59:20.003Z,54.52
2023-02-09T16:01:48.277Z,55.13
2023-02-09T16:04:15.709Z,54.54
2023-02-09T16:06:45.055Z,55.54
2023-02-09T16:09:17.251Z,55.76
2023-02-09T16:11:44.680Z,57.45
2023-02-09T16:14:16.183Z,55.77
2023-02-09T16:16:44.779Z,56.61
2023-02-09T16:19:12.230Z,57.33
2023-02-09T16:21:39.820Z,57.81
2023-02-09T16:24:08.067Z,56.08
2023-02-09T16:26:35.570Z,57.99
2023-02-09T16:29:02.885Z,57.04
2023-02-09T16:31:31.678Z,57.10
2023-02-09T16:33:58.972Z,57.26
2023-02-09T16:36:28.206Z,57.16
2023-02-09T16:38:55.534Z,58.19
2023-02-09T16:41:40.540Z,57.76
2023-02-09T16:44:14.804Z,58.53
2023-02-09T16:46:43.588Z,59.09
2023-02-09T16:49:18.242Z,59.06
2023-02-09T16:51:45.791Z,59.49
2023-02-09T16:54:13.106Z,59.55
2023-02-09T16:56:53.605Z,60.18
2023-02-09T16:59:21.311Z,60.14
2023-02-09T17:01:50.222Z,60.71
2023-02-09T17:04:17.942Z,60.89
2023-02-09T17:06:46.093Z,60.90
2023-02-09T17:09:14.930Z,61.06
2023-02-09T17:11:42.236Z,60.85
2023-02-09T17:14:09.732Z,61.36
2023-02-09T17:16:39.216Z,61.59
2023-02-09T17:19:11.385Z,62.48
2023-02-09T17:21:40.233Z,63.43
2023-02-09T17:24:12.210Z,63.35
2023-02-09T17:26:40.317Z,62.74
2023-02-09T17:29:07.609Z,63.11
2023-02-09T17:31:50.685Z,63.62
2023-02-09T17:34:26.806Z,63.09
2023-02-09T17:36:54.105Z,63.67
2023-02-09T17:39:24.855Z,64.15
2023-02-09T17:41:52.151Z,64.50
2023-02-09T17:44:34.869Z,64.39
2023-02-09T17:47:10.555Z,64.48
2023-02-09T17:49:39.193Z,64.19
2023-02-09T17:52:06.692Z,64.06
2023-02-09T17:54:33.991Z,64.19
2023-02-09T17:57:01.266Z,64.85
2023-02-09T17:59:28.578Z,65.06
2023-02-09T18:01:56.186Z,65.12
2023-02-09T18:04:26.700Z,65.72
2023-02-09T18:06:57.676Z,65.86
2023-02-09T18:09:25.117Z,65.97
2023-02-09T18:11:57.323Z,66.28
2023-02-09T18:14:25.202Z,66.47
2023-02-09T18:16:53.437Z,66.26
2023-02-09T18:19:20.749Z,65.95
2023-02-09T18:21:48.749Z,65.95
2023-02-09T18:24:17.443Z,65.75
2023-02-09T18:26:46.727Z,66.15
2023-02-09T18:29:14.063Z,66.08
2023-02-09T18:31:41.353Z,66.32
2023-02-09T18:34:08.779Z,66.58
2023-02-09T18:36:36.281Z,66.47
2023-02-09T18:39:03.644Z,66.54
2023-02-09T18:41:32.336Z,66.41
2023-02-09T18:43:59.642Z,67.09
2023-02-09T18:46:27.079Z,67.27
2023-02-09T18:48:55.056Z,67.22
2023-02-09T18:51:22.749Z,66.84
2023-02-09T18:53:51.287Z,66.06
2023-02-09T18:56:19.920Z,66.92
2023-02-09T18:58:48.613Z,67.33
2023-02-09T19:01:16.376Z,67.15
2023-02-09T19:03:43.646Z,67.45
2023-02-09T19:06:11.819Z,67.14
2023-02-09T19:08:39.840Z,67.03
2023-02-09T19:11:07.558Z,67.04
2023-02-09T19:13:35.480Z,67.27
2023-02-09T19:16:04.266Z,67.12
2023-02-09T19:18:31.591Z,67.34
2023-02-09T19:20:59.165Z,67.37
2023-02-09T19:23:26.486Z,67.07
2023-02-09T19:26:01.400Z,66.74
2023-02-09T19:28:28.751Z,65.86
2023-02-09T19:30:56.119Z,66.47
2023-02-09T19:33:24.808Z,66.34
2023-02-09T19:35:58.405Z,66.63
2023-02-09T19:38:26.491Z,66.26
2023-02-09T19:41:08.535Z,65.53
2023-02-09T19:43:36.983Z,64.68
2023-02-09T19:46:04.503Z,64.22
2023-02-09T19:48:33.199Z,64.35
2023-02-09T19:51:00.703Z,64.50
2023-02-09T19:53:28.279Z,64.86
2023-02-09T19:55:55.712Z,65.66
2023-02-09T19:58:23.139Z,66.17
2023-02-09T20:00:50.486Z,66.64
2023-02-09T20:03:17.959Z,67.09
2023-02-09T20:05:47.210Z,66.64
2023-02-09T20:08:16.854Z,67.53
2023-02-09T20:10:45.143Z,66.37
2023-02-09T20:13:13.342Z,66.08
2023-02-09T20:15:41.525Z,66.75
2023-02-09T20:18:08.877Z,67.18
2023-02-09T20:20:36.148Z,67.52
2023-02-09T20:23:06.777Z,67.25
2023-02-09T20:25:34.056Z,67.54
2023-02-09T20:28:01.418Z,67.34
2023-02-09T20:30:28.877Z,68.13
2023-02-09T20:32:56.145Z,68.13
2023-02-09T20:35:23.401Z,68.30
2023-02-09T20:37:52.729Z,68.87
2023-02-09T20:40:21.620Z,68.72
2023-02-09T20:43:06.364Z,68.44
2023-02-09T20:45:59.570Z,69.32
2023-02-09T20:48:26.892Z,68.94
2023-02-09T20:50:54.184Z,68.44
2023-02-09T20:53:22.362Z,69.25
2023-02-09T20:55:50.941Z,69.21
2023-02-09T20:58:19.166Z,69.56
2023-02-09T21:00:46.544Z,69.90
2023-02-09T21:03:14.006Z,70.07
2023-02-09T21:05:41.300Z,70.04
2023-02-09T21:08:09.139Z,70.09
2023-02-09T21:10:38.355Z,70.14
2023-02-09T21:13:07.461Z,70.40
2023-02-09T21:15:34.918Z,70.55
2023-02-09T21:18:02.349Z,70.39
2023-02-09T21:20:32.023Z,71.31
2023-02-09T21:22:59.337Z,70.16
2023-02-09T21:25:27.607Z,69.91
2023-02-09T21:27:55.653Z,70.17
2023-02-09T21:30:24.276Z,70.68
2023-02-09T21:32:51.769Z,70.58
2023-02-09T21:35:19.026Z,70.78
2023-02-09T21:37:46.305Z,70.49
2023-02-09T21:40:15.972Z,71.59
2023-02-09T21:42:43.337Z,71.44
2023-02-09T21:45:10.603Z,71.49
2023-02-09T21:47:39.999Z,71.57
2023-02-09T21:50:08.382Z,71.97
2023-02-09T21:52:35.996Z,71.57
2023-02-09T21:55:03.269Z,72.08
2023-02-09T21:57:30.664Z,73.39
2023-02-09T21:59:58.896Z,75.18
2023-02-09T22:02:27.346Z,74.56
2023-02-09T22:04:56.094Z,75.03
2023-02-09T22:07:23.356Z,73.72
2023-02-09T22:09:50.622Z,73.98
2023-02-09T22:12:17.874Z,74.66
2023-02-09T22:14:45.126Z,74.28
2023-02-09T22:17:12.392Z,74.08
2023-02-09T22:19:39.641Z,74.29
2023-02-09T22:22:08.301Z,74.83
2023-02-09T22:24:35.661Z,74.61
2023-02-09T22:27:03.419Z,74.97
2023-02-09T22:29:33.147Z,75.05
2023-02-09T22:32:00.422Z,75.04
2023-02-09T22:34:27.729Z,75.20
2023-02-09T22:36:55.184Z,75.05
2023-02-09T22:39:23.891Z,75.04
2023-02-09T22:41:51.144Z,74.83
2023-02-09T22:44:18.716Z,75.74
2023-02-09T22:46:46.890Z,75.38
2023-02-09T22:49:16.232Z,75.75
2023-02-09T22:51:43.723Z,75.61
2023-02-09T22:54:10.981Z,75.92
2023-02-09T22:56:39.567Z,75.28
2023-02-09T22:59:06.841Z,75.17
2023-02-09T23:01:34.424Z,75.31
2023-02-09T23:04:01.736Z,74.99
2023-02-09T23:06:30.119Z,75.04
2023-02-09T23:08:58.947Z,74.61
2023-02-09T23:11:26.812Z,74.66
2023-02-09T23:14:11.616Z,73.97
2023-02-09T23:16:39.991Z,74.61
2023-02-09T23:19:08.155Z,75.03
2023-02-09T23:21:36.762Z,75.29
2023-02-09T23:24:04.377Z,75.08
2023-02-09T23:26:31.682Z,75.18
2023-02-09T23:29:01.235Z,75.61
2023-02-09T23:31:29.090Z,75.74
2023-02-09T23:33:56.546Z,74.91
2023-02-09T23:36:24.562Z,75.08
2023-02-09T23:38:53.455Z,75.22
2023-02-09T23:41:20.932Z,76.03
2023-02-09T23:43:48.525Z,75.56
2023-02-09T23:46:17.931Z,76.14
2023-02-09T23:48:45.627Z,76.06
2023-02-09T23:51:14.546Z,75.99
2023-02-09T23:53:42.221Z,76.15
2023-02-09T23:56:09.493Z,77.09
2023-02-09T23:58:38.284Z,75.44
